LIRA/CIA METAR and TAF weather

Enter ICAO airport designator
Station Type Date Time Source
LIRA METAR 2021/09/16 20:20 UTC NOAA

LIRA 162020Z 18011KT CAVOK 25/17 Q1016


Station Type Date Time Source
LIRA Decoded METAR 2021/09/16 20:20 UTC NOAA

Roma / Ciampino, Italy (LIRA) 41-47N 012-35E 105M
Sep 16, 2021 - 04:20 PM EDT / 2021.09.16 2020 UTC
Wind: from the S (180 degrees) at 13 MPH (11 KT):0
Visibility: greater than 7 mile(s):0
Temperature: 77 F (25 C)
Dew Point: 62 F (17 C)
Relative Humidity: 61%
Pressure (altimeter): 30.00 in. Hg (1016 hPa)
ob: LIRA 162020Z 18011KT CAVOK 25/17 Q1016
cycle: 20

Station Type Date Time Source
LIRA TAF 2021/09/16 18:21 UTC NOAA

TAF LIRA 161700Z 1618/1718 16014KT 9999 SCT040
TEMPO 1700/1706 TSRA
TEMPO 1706/1718 SHRA

Example: see airport list